createdAt,value
2022-09-07T00:02:39.296Z,20.80
2022-09-07T00:07:41.591Z,20.90
2022-09-07T00:12:43.832Z,20.90
2022-09-07T00:17:46.073Z,21.20
2022-09-07T00:22:48.307Z,21.10
2022-09-07T00:27:50.475Z,20.80
2022-09-07T00:32:52.729Z,21.10
2022-09-07T00:37:55.092Z,20.80
2022-09-07T00:42:57.274Z,21.10
2022-09-07T00:48:15.060Z,21.10
2022-09-07T00:53:31.691Z,21.30
2022-09-07T00:58:36.117Z,21.00
2022-09-07T01:03:47.564Z,21.10
2022-09-07T01:08:50.945Z,21.20
2022-09-07T01:13:54.861Z,21.10
2022-09-07T01:19:21.597Z,21.10
2022-09-07T01:24:32.562Z,21.20
2022-09-07T01:29:41.576Z,21.20
2022-09-07T01:34:51.876Z,21.20
2022-09-07T01:40:20.133Z,21.10
2022-09-07T01:45:28.985Z,21.00
2022-09-07T01:50:39.229Z,21.10
2022-09-07T01:55:57.203Z,20.80
2022-09-07T02:01:15.192Z,21.20
2022-09-07T02:06:23.932Z,21.20
2022-09-07T02:11:33.512Z,21.50
2022-09-07T02:16:51.182Z,21.20
2022-09-07T02:22:02.769Z,21.20
2022-09-07T02:27:12.040Z,21.30
2022-09-07T02:32:14.283Z,21.40
2022-09-07T02:37:19.545Z,21.10
2022-09-07T02:42:24.330Z,21.30
2022-09-07T02:47:35.502Z,21.40
2022-09-07T02:52:56.232Z,21.20
2022-09-07T02:58:13.407Z,21.50
2022-09-07T03:03:24.540Z,21.30
2022-09-07T03:08:29.127Z,21.30
2022-09-07T03:13:32.672Z,21.40
2022-09-07T03:18:35.335Z,21.40
2022-09-07T03:23:37.668Z,21.40
2022-09-07T03:28:39.878Z,21.60
2022-09-07T03:33:42.122Z,21.20
2022-09-07T03:38:44.585Z,21.30
2022-09-07T03:43:47.720Z,21.60
2022-09-07T03:48:50.655Z,21.40
2022-09-07T03:53:54.275Z,21.60
2022-09-07T03:58:56.841Z,21.50
2022-09-07T04:04:02.641Z,21.30
2022-09-07T04:09:07.273Z,21.30
2022-09-07T04:14:11.372Z,21.50
2022-09-07T04:19:14.184Z,21.60
2022-09-07T04:24:18.026Z,21.40
2022-09-07T04:29:20.231Z,21.40
2022-09-07T04:34:22.524Z,21.50
2022-09-07T04:39:24.776Z,21.30
2022-09-07T04:44:26.996Z,21.00
2022-09-07T04:49:29.262Z,21.10
2022-09-07T04:54:31.483Z,21.30
2022-09-07T04:59:33.727Z,21.20
2022-09-07T05:04:36.666Z,21.10
2022-09-07T05:09:38.888Z,21.00
2022-09-07T05:14:41.180Z,20.80
2022-09-07T05:19:43.409Z,21.00
2022-09-07T05:24:47.307Z,20.90
2022-09-07T05:30:05.842Z,20.90
2022-09-07T05:35:08.961Z,20.80
2022-09-07T05:40:11.862Z,20.90
2022-09-07T05:45:14.359Z,21.20
2022-09-07T05:50:17.262Z,21.10
2022-09-07T05:55:29.928Z,21.10
2022-09-07T06:00:33.222Z,21.30
2022-09-07T06:05:35.535Z,21.30
2022-09-07T06:10:45.881Z,21.50
2022-09-07T06:15:48.187Z,21.20
2022-09-07T06:20:50.449Z,21.60
2022-09-07T06:25:52.623Z,21.70
2022-09-07T06:31:19.011Z,21.90
2022-09-07T06:36:23.531Z,22.10
2022-09-07T06:52:04.122Z,22.80
2022-09-07T06:57:09.105Z,22.90
2022-09-07T07:02:14.623Z,23.00
2022-09-07T07:07:16.924Z,23.10
2022-09-07T07:17:20.457Z,23.30
2022-09-07T07:22:46.259Z,23.60
2022-09-07T07:27:45.936Z,23.70
2022-09-07T07:32:48.658Z,23.90
2022-09-07T07:43:16.394Z,24.10
2022-09-07T07:48:18.576Z,24.50
2022-09-07T07:58:47.497Z,25.00
2022-09-07T08:03:50.810Z,25.20
2022-09-07T08:08:52.976Z,25.50
2022-09-07T08:13:55.903Z,25.80
2022-09-07T08:18:58.905Z,26.00
2022-09-07T08:24:01.222Z,26.30
2022-09-07T08:29:03.281Z,26.30
2022-09-07T08:34:07.420Z,26.40
2022-09-07T08:39:10.086Z,26.50
2022-09-07T08:44:38.075Z,26.30
2022-09-07T08:49:50.509Z,26.60
2022-09-07T08:55:29.483Z,26.60
2022-09-07T09:00:31.572Z,26.60
2022-09-07T09:05:48.349Z,26.60
2022-09-07T09:11:07.877Z,26.70
2022-09-07T09:16:26.744Z,26.70
2022-09-07T09:21:28.932Z,27.00
2022-09-07T09:26:32.216Z,27.10
2022-09-07T09:31:36.090Z,27.60
2022-09-07T09:36:52.574Z,27.70
2022-09-07T09:41:58.268Z,27.90
2022-09-07T09:52:41.741Z,28.20
2022-09-07T10:08:37.343Z,28.30
2022-09-07T10:13:56.069Z,28.30
2022-09-07T10:18:59.532Z,28.20
2022-09-07T10:24:07.705Z,28.30
2022-09-07T10:29:28.633Z,28.40
2022-09-07T10:34:55.679Z,28.60
2022-09-07T10:40:30.153Z,28.80
2022-09-07T10:46:07.559Z,28.90
2022-09-07T10:51:17.629Z,29.10
2022-09-07T10:56:49.392Z,29.10
2022-09-07T11:02:09.204Z,29.30
2022-09-07T11:07:52.447Z,29.40
2022-09-07T11:12:59.148Z,29.30
2022-09-07T11:18:22.645Z,29.50
2022-09-07T11:23:31.343Z,29.50
2022-09-07T11:28:46.306Z,29.40
2022-09-07T11:39:35.320Z,29.50
2022-09-07T11:44:50.281Z,29.60
2022-09-07T11:49:59.014Z,29.60
2022-09-07T11:55:09.969Z,29.70
2022-09-07T12:00:33.989Z,29.60
2022-09-07T12:06:00.098Z,30.10
2022-09-07T12:11:23.218Z,30.40
2022-09-07T12:16:40.921Z,30.70
2022-09-07T12:21:54.948Z,31.00
2022-09-07T12:26:57.326Z,31.60
2022-09-07T12:37:40.298Z,32.30
2022-09-07T12:42:42.468Z,32.80
2022-09-07T12:47:59.537Z,33.00
2022-09-07T12:53:33.561Z,33.20
2022-09-07T12:58:59.134Z,33.10
2022-09-07T13:04:12.748Z,33.20
2022-09-07T13:09:34.466Z,33.20
2022-09-07T13:14:38.425Z,33.20
2022-09-07T13:19:46.502Z,33.30
2022-09-07T13:24:52.674Z,33.20
2022-09-07T13:30:15.302Z,33.20
2022-09-07T13:35:29.265Z,33.30
2022-09-07T13:40:39.162Z,33.50
2022-09-07T13:45:53.779Z,33.90
2022-09-07T13:51:39.561Z,34.40
2022-09-07T13:56:55.158Z,34.80
2022-09-07T14:01:58.314Z,35.10
2022-09-07T14:07:15.702Z,35.00
2022-09-07T14:12:20.535Z,34.70
2022-09-07T14:17:22.836Z,34.20
2022-09-07T14:22:34.068Z,33.70
2022-09-07T14:27:41.578Z,33.20
2022-09-07T14:32:44.796Z,32.80
2022-09-07T14:37:48.107Z,32.30
2022-09-07T14:42:51.724Z,32.00
2022-09-07T14:47:55.132Z,31.50
2022-09-07T14:58:23.598Z,30.80
2022-09-07T15:03:28.398Z,30.60
2022-09-07T15:08:43.089Z,30.40
2022-09-07T15:13:52.474Z,30.20
2022-09-07T15:18:57.378Z,30.50
2022-09-07T15:24:00.933Z,30.80
2022-09-07T15:29:18.445Z,30.90
2022-09-07T15:34:21.160Z,30.70
2022-09-07T15:39:27.470Z,30.70
2022-09-07T15:44:29.768Z,30.50
2022-09-07T15:49:31.911Z,30.30
2022-09-07T15:54:36.869Z,30.20
2022-09-07T15:59:41.505Z,30.10
2022-09-07T16:04:43.753Z,30.00
2022-09-07T16:09:45.913Z,29.90
2022-09-07T16:14:48.056Z,29.70
2022-09-07T16:19:50.064Z,29.60
2022-09-07T16:24:52.670Z,29.40
2022-09-07T16:29:54.957Z,29.10
2022-09-07T16:34:56.963Z,29.00
2022-09-07T16:39:59.260Z,28.80
2022-09-07T16:50:23.668Z,28.50
2022-09-07T16:55:25.699Z,28.40
2022-09-07T17:00:31.299Z,28.40
2022-09-07T17:05:40.270Z,28.30
2022-09-07T17:10:42.345Z,28.20
2022-09-07T17:15:44.901Z,28.00
2022-09-07T17:20:58.638Z,27.50
2022-09-07T17:26:13.637Z,27.60
2022-09-07T17:36:44.876Z,27.30
2022-09-07T17:41:48.382Z,27.00
2022-09-07T17:46:50.975Z,26.90
2022-09-07T17:51:53.112Z,26.70
2022-09-07T17:56:55.223Z,26.50
2022-09-07T18:01:57.681Z,26.40
2022-09-07T18:06:59.673Z,26.20
2022-09-07T18:12:02.159Z,26.10
2022-09-07T18:17:05.314Z,25.90
2022-09-07T18:22:08.603Z,25.90
2022-09-07T18:27:10.835Z,25.70
2022-09-07T18:32:13.123Z,25.50
2022-09-07T18:37:15.365Z,25.40
2022-09-07T18:42:17.518Z,25.40
2022-09-07T18:47:27.850Z,25.10
2022-09-07T18:57:52.805Z,25.30
2022-09-07T19:02:54.900Z,25.20
2022-09-07T19:07:56.985Z,25.40
2022-09-07T19:12:59.126Z,25.30
2022-09-07T19:18:01.270Z,25.00
2022-09-07T19:23:04.239Z,24.70
2022-09-07T19:28:06.379Z,24.40
2022-09-07T19:33:11.970Z,24.40
2022-09-07T19:38:14.255Z,24.30
2022-09-07T19:43:16.545Z,23.90
2022-09-07T19:48:18.699Z,23.90
2022-09-07T19:53:20.790Z,23.80
2022-09-07T19:58:22.845Z,23.70
2022-09-07T20:03:25.057Z,23.80
2022-09-07T20:08:29.440Z,23.40
2022-09-07T20:13:32.157Z,23.50
2022-09-07T20:18:35.161Z,23.40
2022-09-07T20:23:37.873Z,23.50
2022-09-07T20:28:41.368Z,23.50
2022-09-07T20:33:45.372Z,23.50
2022-09-07T20:38:54.575Z,23.30
2022-09-07T20:43:58.972Z,23.20
2022-09-07T20:49:01.842Z,22.90
2022-09-07T20:54:04.435Z,23.00
2022-09-07T20:59:06.829Z,22.70
2022-09-07T21:04:08.884Z,22.80
2022-09-07T21:09:10.968Z,22.80
2022-09-07T21:14:13.553Z,22.70
2022-09-07T21:19:15.696Z,22.70
2022-09-07T21:24:20.731Z,22.60
2022-09-07T21:29:26.531Z,22.50
2022-09-07T21:34:28.673Z,22.60
2022-09-07T21:39:30.798Z,22.40
2022-09-07T21:44:32.912Z,22.60
2022-09-07T21:49:34.901Z,22.60
2022-09-07T21:54:38.073Z,22.50
2022-09-07T21:59:40.354Z,22.50
2022-09-07T22:04:42.413Z,22.50
2022-09-07T22:09:44.540Z,22.60
2022-09-07T22:14:46.617Z,22.60
2022-09-07T22:19:48.790Z,22.50
2022-09-07T22:24:50.864Z,22.50
2022-09-07T22:29:53.232Z,22.70
2022-09-07T22:34:55.390Z,22.40
2022-09-07T22:39:57.582Z,22.30
2022-09-07T22:44:59.767Z,22.30
2022-09-07T22:50:01.812Z,22.30
2022-09-07T22:55:04.198Z,22.30
2022-09-07T23:00:07.354Z,22.30
2022-09-07T23:05:10.152Z,22.10
2022-09-07T23:10:12.461Z,22.10
2022-09-07T23:15:14.669Z,22.40
2022-09-07T23:20:17.896Z,22.30
2022-09-07T23:25:20.028Z,22.00
2022-09-07T23:30:22.153Z,22.40
2022-09-07T23:35:24.349Z,22.40
2022-09-07T23:40:28.926Z,22.50
2022-09-07T23:45:31.696Z,22.40
2022-09-07T23:50:33.845Z,22.20
2022-09-07T23:55:36.062Z,22.50
